Time;durP1;ratioP1;P1;durP2;ratioP2;P2;SDS_P1;SDS_P2;PMS_P1;PMS_P2;Temp;Humidity;BMP_temperature;BMP_pressure;BME280_temperature;BME280_humidity;BME280_pressure;Samples;Min_cycle;Max_cycle;Signal;HPM_P1;HPM_P2
2023/08/09 00:00:43;;;;;;;9.40;1.27;;;;;;;;;;5047739;28;20242;-77
2023/08/09 00:03:09;;;;;;;2.00;1.10;;;;;;;;;;5008723;28;20219;-77
2023/08/09 00:05:34;;;;;;;2.87;1.00;;;;;;;;;;5035657;28;20230;-77
2023/08/09 00:08:03;;;;;;;2.37;1.03;;;;;;;;;;5032648;28;20303;-77
2023/08/09 00:10:31;;;;;;;3.23;1.00;;;;;;;;;;5008860;28;20226;-77
2023/08/09 00:12:58;;;;;;;4.27;1.00;;;;;;;;;;5031109;28;20259;-78
2023/08/09 00:15:24;;;;;;;5.00;1.30;;;;;;;;;;5052227;28;20222;-78
2023/08/09 00:17:52;;;;;;;5.47;1.00;;;;;;;;;;5038152;28;20243;-77
2023/08/09 00:20:17;;;;;;;2.73;1.00;;;;;;;;;;5048625;28;20303;-77
2023/08/09 00:22:47;;;;;;;2.30;0.87;;;;;;;;;;5032609;28;20212;-77
2023/08/09 00:25:18;;;;;;;2.47;1.23;;;;;;;;;;5015779;28;20231;-77
2023/08/09 00:27:48;;;;;;;2.67;1.10;;;;;;;;;;5037786;28;20220;-77
2023/08/09 00:30:14;;;;;;;3.43;1.27;;;;;;;;;;5028808;28;20590;-77
2023/08/09 00:32:42;;;;;;;2.87;1.20;;;;;;;;;;5036303;28;20227;-78
2023/08/09 00:35:10;;;;;;;2.40;1.00;;;;;;;;;;5055083;28;20306;-77
2023/08/09 00:37:37;;;;;;;3.40;1.13;;;;;;;;;;5032482;28;20247;-78
2023/08/09 00:40:07;;;;;;;1.47;0.87;;;;;;;;;;5030158;28;20225;-78
2023/08/09 00:42:34;;;;;;;2.63;1.33;;;;;;;;;;5046471;28;20231;-78
2023/08/09 00:44:59;;;;;;;2.47;1.00;;;;;;;;;;5006373;28;20281;-77
2023/08/09 00:47:27;;;;;;;4.67;1.30;;;;;;;;;;5032233;28;20215;-77
2023/08/09 00:49:53;;;;;;;2.10;1.13;;;;;;;;;;5017953;28;20268;-77
2023/08/09 00:52:23;;;;;;;2.67;1.10;;;;;;;;;;5033464;28;20220;-77
2023/08/09 00:54:49;;;;;;;1.97;1.00;;;;;;;;;;5034639;28;20233;-77
2023/08/09 00:57:14;;;;;;;2.03;1.10;;;;;;;;;;5031609;28;20211;-76
2023/08/09 00:59:42;;;;;;;2.13;0.90;;;;;;;;;;5038283;28;20253;-77
2023/08/09 01:02:11;;;;;;;3.20;1.17;;;;;;;;;;5015721;28;20314;-77
2023/08/09 01:04:36;;;;;;;1.97;1.03;;;;;;;;;;5024248;28;20296;-77
2023/08/09 01:07:32;;;;;;;2.97;1.20;;;;;;;;;;5016592;28;20737;-77
2023/08/09 01:10:09;;;;;;;3.97;1.47;;;;;;;;;;5041660;28;20220;-78
2023/08/09 01:12:41;;;;;;;2.57;1.00;;;;;;;;;;5023718;28;20223;-78
2023/08/09 01:15:09;;;;;;;3.57;1.10;;;;;;;;;;5031887;28;20231;-77
2023/08/09 01:17:35;;;;;;;1.97;1.07;;;;;;;;;;5041468;28;20463;-77
2023/08/09 01:20:10;;;;;;;5.13;1.40;;;;;;;;;;5031970;28;20724;-77
2023/08/09 01:22:46;;;;;;;3.70;1.67;;;;;;;;;;5020807;28;20227;-77
2023/08/09 01:25:18;;;;;;;1.83;1.10;;;;;;;;;;5031571;28;20219;-77
2023/08/09 01:27:46;;;;;;;3.30;1.17;;;;;;;;;;5032261;28;20885;-77
2023/08/09 01:30:14;;;;;;;2.10;1.27;;;;;;;;;;5029243;28;20211;-77
2023/08/09 01:32:44;;;;;;;2.97;1.40;;;;;;;;;;5048002;28;20236;-77
2023/08/09 01:35:12;;;;;;;3.50;1.13;;;;;;;;;;5009786;28;20277;-77
2023/08/09 01:37:52;;;;;;;5.50;1.70;;;;;;;;;;5031264;28;20228;-77
2023/08/09 01:40:22;;;;;;;3.73;1.30;;;;;;;;;;5036043;28;20732;-77
2023/08/09 01:42:48;;;;;;;2.43;1.20;;;;;;;;;;5033001;28;20217;-77
2023/08/09 01:45:16;;;;;;;3.03;1.10;;;;;;;;;;5019012;28;20208;-77
2023/08/09 01:47:42;;;;;;;5.60;1.43;;;;;;;;;;5027410;28;20230;-76
2023/08/09 01:50:27;;;;;;;1.87;1.30;;;;;;;;;;5036184;28;20273;-77
2023/08/09 01:52:55;;;;;;;4.13;1.37;;;;;;;;;;5027142;28;20711;-78
2023/08/09 01:55:25;;;;;;;3.47;1.23;;;;;;;;;;5041099;28;20246;-78
2023/08/09 01:57:53;;;;;;;1.27;1.17;;;;;;;;;;5055064;28;20219;-75
2023/08/09 02:00:19;;;;;;;4.83;1.47;;;;;;;;;;5060514;28;20700;-78
2023/08/09 02:02:47;;;;;;;6.60;1.60;;;;;;;;;;5035244;28;20227;-77
2023/08/09 02:05:15;;;;;;;4.40;1.43;;;;;;;;;;5046673;28;20253;-78
2023/08/09 02:07:41;;;;;;;2.83;1.40;;;;;;;;;;5031332;28;20215;-78
2023/08/09 02:10:10;;;;;;;2.13;1.20;;;;;;;;;;5019303;28;20236;-77
2023/08/09 02:12:39;;;;;;;5.20;1.60;;;;;;;;;;5018039;28;20227;-77
2023/08/09 02:15:07;;;;;;;2.97;1.40;;;;;;;;;;5040396;28;20232;-76
2023/08/09 02:17:33;;;;;;;2.23;1.37;;;;;;;;;;5051218;28;20223;-77
2023/08/09 02:20:01;;;;;;;2.67;1.57;;;;;;;;;;5039852;28;20231;-77
2023/08/09 02:22:33;;;;;;;4.73;1.70;;;;;;;;;;5027990;28;20329;-75
2023/08/09 02:25:02;;;;;;;2.97;1.77;;;;;;;;;;5036596;28;20223;-77
2023/08/09 02:27:29;;;;;;;1.90;1.47;;;;;;;;;;5033874;28;20226;-76
2023/08/09 02:29:57;;;;;;;2.63;1.80;;;;;;;;;;5034819;28;20231;-78
2023/08/09 02:32:25;;;;;;;6.37;1.80;;;;;;;;;;5032057;28;20690;-77
2023/08/09 02:34:51;;;;;;;4.17;1.80;;;;;;;;;;5017898;28;20761;-77
2023/08/09 02:37:19;;;;;;;1.60;1.50;;;;;;;;;;5046575;28;20223;-77
2023/08/09 02:39:47;;;;;;;3.77;1.90;;;;;;;;;;5032187;28;20302;-77
2023/08/09 02:42:13;;;;;;;3.20;1.60;;;;;;;;;;5025990;28;20242;-77
2023/08/09 02:44:38;;;;;;;2.37;1.63;;;;;;;;;;5016418;28;20284;-76
2023/08/09 02:47:08;;;;;;;2.23;1.80;;;;;;;;;;5050805;28;20324;-77
2023/08/09 02:49:36;;;;;;;3.87;2.10;;;;;;;;;;5032512;28;20351;-77
2023/08/09 02:52:02;;;;;;;1.73;1.63;;;;;;;;;;5026288;28;20227;-77
2023/08/09 02:54:27;;;;;;;3.83;2.17;;;;;;;;;;5041251;28;20236;-77
2023/08/09 02:56:55;;;;;;;4.37;2.27;;;;;;;;;;5033896;28;20297;-77
2023/08/09 02:59:21;;;;;;;4.87;2.03;;;;;;;;;;5047862;28;20227;-77
2023/08/09 03:01:52;;;;;;;2.70;2.30;;;;;;;;;;5017884;28;20273;-75
2023/08/09 03:04:22;;;;;;;2.93;2.20;;;;;;;;;;5049358;28;20231;-76
2023/08/09 03:06:50;;;;;;;5.70;2.53;;;;;;;;;;5053790;28;20220;-77
2023/08/09 03:09:15;;;;;;;4.43;2.67;;;;;;;;;;5012797;28;20218;-77
2023/08/09 03:11:41;;;;;;;3.10;2.50;;;;;;;;;;5050478;28;20215;-77
2023/08/09 03:14:13;;;;;;;6.43;2.70;;;;;;;;;;5009803;28;20724;-77
2023/08/09 03:16:41;;;;;;;5.73;3.23;;;;;;;;;;5033582;28;20231;-78
2023/08/09 03:19:12;;;;;;;2.80;2.40;;;;;;;;;;5032529;28;20230;-77
2023/08/09 03:21:43;;;;;;;4.97;3.37;;;;;;;;;;5027045;28;20242;-77
2023/08/09 03:24:09;;;;;;;4.70;3.07;;;;;;;;;;5032364;28;20224;-77
2023/08/09 03:26:35;;;;;;;3.63;3.20;;;;;;;;;;5015188;28;20230;-77
2023/08/09 03:29:02;;;;;;;8.27;3.27;;;;;;;;;;5008907;28;20261;-77
2023/08/09 03:31:31;;;;;;;5.57;3.60;;;;;;;;;;5032616;28;20216;-76
2023/08/09 03:33:59;;;;;;;5.07;2.90;;;;;;;;;;5021569;28;20212;-76
2023/08/09 03:36:31;;;;;;;5.60;3.53;;;;;;;;;;5022373;28;20215;-77
2023/08/09 03:41:32;;;;;;;5.13;3.57;;;;;;;;;;5078810;28;20222;-84
2023/08/09 03:44:00;;;;;;;5.30;3.57;;;;;;;;;;5039515;28;20287;-84
2023/08/09 03:46:25;;;;;;;4.80;3.30;;;;;;;;;;5005697;28;20224;-85
2023/08/09 03:48:53;;;;;;;4.73;3.33;;;;;;;;;;4999893;28;20216;-84
2023/08/09 03:51:22;;;;;;;5.70;4.00;;;;;;;;;;4983351;28;20212;-83
2023/08/09 03:53:48;;;;;;;5.10;4.33;;;;;;;;;;5001819;28;20246;-83
2023/08/09 03:56:18;;;;;;;4.23;3.83;;;;;;;;;;5040236;28;20239;-79
2023/08/09 03:58:44;;;;;;;14.40;4.73;;;;;;;;;;5024668;28;20243;-79
2023/08/09 04:04:56;;;;;;;4.60;4.20;;;;;;;;;;5059614;28;20306;-78
2023/08/09 04:07:22;;;;;;;7.53;4.83;;;;;;;;;;5021436;28;20220;-79
2023/08/09 04:09:52;;;;;;;5.37;4.37;;;;;;;;;;5010420;28;20224;-79
2023/08/09 04:12:18;;;;;;;4.67;4.20;;;;;;;;;;5052475;28;20254;-80
2023/08/09 04:14:43;;;;;;;4.83;4.27;;;;;;;;;;5003792;28;20307;-80
2023/08/09 04:17:09;;;;;;;4.83;4.17;;;;;;;;;;5057551;28;20627;-80
2023/08/09 04:19:37;;;;;;;5.87;4.30;;;;;;;;;;4993601;28;20257;-79
2023/08/09 04:22:05;;;;;;;5.40;4.80;;;;;;;;;;5022002;28;20587;-78
2023/08/09 04:24:34;;;;;;;6.53;4.93;;;;;;;;;;5022159;28;20217;-78
2023/08/09 04:26:59;;;;;;;5.37;4.87;;;;;;;;;;5003741;28;20808;-79
2023/08/09 04:29:27;;;;;;;6.00;4.70;;;;;;;;;;5005955;28;20991;-79
2023/08/09 04:31:55;;;;;;;7.27;5.50;;;;;;;;;;5053241;28;20223;-80
2023/08/09 04:34:20;;;;;;;6.33;5.57;;;;;;;;;;5020605;28;20302;-79
2023/08/09 04:36:46;;;;;;;5.40;4.77;;;;;;;;;;5035960;28;20646;-79
2023/08/09 04:39:12;;;;;;;5.57;4.63;;;;;;;;;;5038507;28;20225;-80
2023/08/09 04:41:37;;;;;;;7.83;5.23;;;;;;;;;;5052455;28;20227;-79
2023/08/09 04:44:03;;;;;;;7.40;5.17;;;;;;;;;;5028542;28;20291;-80
2023/08/09 04:46:28;;;;;;;5.47;4.97;;;;;;;;;;5007440;28;20220;-78
2023/08/09 04:48:54;;;;;;;6.93;5.27;;;;;;;;;;5041536;28;20281;-79
2023/08/09 04:51:19;;;;;;;8.80;5.30;;;;;;;;;;5041986;28;20285;-79
2023/08/09 04:53:45;;;;;;;5.67;4.63;;;;;;;;;;5041353;28;20223;-80
2023/08/09 04:56:11;;;;;;;5.27;4.53;;;;;;;;;;5004628;28;20222;-81
2023/08/09 04:58:39;;;;;;;10.10;4.87;;;;;;;;;;5005478;28;20226;-81
2023/08/09 05:01:05;;;;;;;10.30;4.67;;;;;;;;;;5025325;28;20237;-78
2023/08/09 05:03:32;;;;;;;5.70;4.33;;;;;;;;;;5044399;28;20226;-79
2023/08/09 05:05:58;;;;;;;5.73;3.80;;;;;;;;;;5027219;28;20246;-78
2023/08/09 05:08:23;;;;;;;5.57;4.23;;;;;;;;;;5038424;28;20226;-79
2023/08/09 05:10:49;;;;;;;5.90;3.87;;;;;;;;;;5007658;28;20227;-79
2023/08/09 05:13:14;;;;;;;4.57;3.60;;;;;;;;;;5010951;28;20237;-79
2023/08/09 05:15:40;;;;;;;4.43;3.90;;;;;;;;;;5041924;28;20214;-80
2023/08/09 05:18:05;;;;;;;5.37;3.43;;;;;;;;;;5039094;28;20226;-79
2023/08/09 05:20:31;;;;;;;4.50;3.77;;;;;;;;;;5010585;28;20225;-80
2023/08/09 05:22:57;;;;;;;4.23;3.83;;;;;;;;;;5043231;28;20226;-81
2023/08/09 05:25:22;;;;;;;4.10;3.57;;;;;;;;;;5011455;28;20293;-81
2023/08/09 05:27:48;;;;;;;5.47;3.67;;;;;;;;;;5027276;28;20223;-79
2023/08/09 05:30:19;;;;;;;6.90;3.67;;;;;;;;;;5015892;28;20230;-79
2023/08/09 05:32:45;;;;;;;4.53;3.80;;;;;;;;;;5031190;28;20251;-82
2023/08/09 05:35:10;;;;;;;5.27;3.60;;;;;;;;;;5024677;28;20257;-82
2023/08/09 05:37:37;;;;;;;4.07;3.60;;;;;;;;;;4993778;28;20226;-82
2023/08/09 05:40:04;;;;;;;7.50;3.97;;;;;;;;;;5013313;28;20688;-80
2023/08/09 05:42:32;;;;;;;5.90;3.60;;;;;;;;;;5030710;28;20932;-78
2023/08/09 05:44:59;;;;;;;4.60;3.30;;;;;;;;;;5030080;28;20226;-80
2023/08/09 05:47:24;;;;;;;4.13;3.20;;;;;;;;;;5019310;28;20214;-80
2023/08/09 05:49:50;;;;;;;4.60;3.60;;;;;;;;;;5058079;28;20308;-80
2023/08/09 05:52:15;;;;;;;4.10;3.33;;;;;;;;;;5030991;28;20234;-79
2023/08/09 05:54:43;;;;;;;6.20;3.50;;;;;;;;;;5007190;28;20225;-78
2023/08/09 05:57:09;;;;;;;4.60;3.00;;;;;;;;;;5012836;28;20237;-81
2023/08/09 05:59:34;;;;;;;3.13;2.83;;;;;;;;;;5026321;28;20602;-80
2023/08/09 06:02:02;;;;;;;3.13;2.83;;;;;;;;;;5019221;28;20302;-79
2023/08/09 06:04:28;;;;;;;5.90;2.50;;;;;;;;;;5020062;28;20250;-81
2023/08/09 06:06:53;;;;;;;4.00;2.60;;;;;;;;;;5042392;28;20218;-80
2023/08/09 06:09:22;;;;;;;7.63;2.80;;;;;;;;;;5037696;28;20589;-80
2023/08/09 06:11:50;;;;;;;4.30;2.80;;;;;;;;;;5055664;28;20230;-83
2023/08/09 06:14:15;;;;;;;4.70;2.50;;;;;;;;;;5022446;28;20219;-80
2023/08/09 06:16:46;;;;;;;3.37;2.20;;;;;;;;;;5031690;28;20253;-82
2023/08/09 06:19:11;;;;;;;5.00;2.57;;;;;;;;;;5007975;28;20234;-80
2023/08/09 06:21:38;;;;;;;2.47;2.00;;;;;;;;;;5022760;28;20704;-79
2023/08/09 06:24:07;;;;;;;4.25;2.55;;;;;;;;;;5052397;28;20249;-79
2023/08/09 06:26:33;;;;;;;5.50;2.63;;;;;;;;;;5017115;28;20218;-79
2023/08/09 06:29:01;;;;;;;3.17;2.30;;;;;;;;;;5025304;28;20243;-81
2023/08/09 06:31:27;;;;;;;5.13;2.33;;;;;;;;;;5044565;28;20291;-82
2023/08/09 06:33:53;;;;;;;3.70;2.38;;;;;;;;;;5025066;28;20230;-80
2023/08/09 06:36:19;;;;;;;4.38;2.28;;;;;;;;;;5035650;28;20226;-80
2023/08/09 06:38:44;;;;;;;3.65;2.40;;;;;;;;;;5031857;28;20231;-81
2023/08/09 06:41:12;;;;;;;4.15;2.78;;;;;;;;;;5006591;28;20622;-80
2023/08/09 06:43:38;;;;;;;3.58;2.33;;;;;;;;;;5023904;28;20220;-81
2023/08/09 06:46:03;;;;;;;4.97;2.30;;;;;;;;;;5050496;28;20799;-84
2023/08/09 06:48:32;;;;;;;5.47;2.30;;;;;;;;;;4993704;28;20220;-81
2023/08/09 06:51:00;;;;;;;4.00;2.17;;;;;;;;;;5015550;28;20227;-80
2023/08/09 06:53:26;;;;;;;3.67;2.15;;;;;;;;;;5018163;28;20230;-80
2023/08/09 06:55:51;;;;;;;4.35;2.03;;;;;;;;;;5038384;28;20219;-80
2023/08/09 06:58:22;;;;;;;4.10;1.90;;;;;;;;;;5035369;28;20240;-79
2023/08/09 07:00:50;;;;;;;4.20;2.13;;;;;;;;;;5014236;28;20254;-79
2023/08/09 07:03:16;;;;;;;3.95;2.08;;;;;;;;;;5012807;28;20228;-80
2023/08/09 07:05:42;;;;;;;4.97;2.03;;;;;;;;;;5040814;28;20701;-79
2023/08/09 07:08:07;;;;;;;5.00;2.50;;;;;;;;;;5008316;28;20226;-80
2023/08/09 07:10:33;;;;;;;7.20;2.00;;;;;;;;;;5003753;28;20212;-80
2023/08/09 07:12:58;;;;;;;3.28;1.98;;;;;;;;;;5005445;28;20231;-81
2023/08/09 07:15:24;;;;;;;3.83;2.10;;;;;;;;;;5041070;28;20228;-80
2023/08/09 07:17:50;;;;;;;6.05;1.85;;;;;;;;;;5007421;28;20219;-81
2023/08/09 07:20:15;;;;;;;5.03;1.95;;;;;;;;;;5024203;28;20226;-81
2023/08/09 07:22:44;;;;;;;2.10;1.52;;;;;;;;;;5001414;28;20632;-80
2023/08/09 07:25:10;;;;;;;3.30;1.88;;;;;;;;;;5028804;28;20231;-83
2023/08/09 07:27:45;;;;;;;1.80;1.45;;;;;;;;;;5010064;28;20211;-83
2023/08/09 07:30:12;;;;;;;6.28;2.10;;;;;;;;;;5025337;28;20242;-83
2023/08/09 07:32:40;;;;;;;4.93;1.70;;;;;;;;;;4996339;28;20222;-80
2023/08/09 07:35:08;;;;;;;2.85;1.77;;;;;;;;;;5011742;28;20221;-79
2023/08/09 07:37:35;;;;;;;2.60;1.60;;;;;;;;;;5039557;28;20219;-82
2023/08/09 07:40:02;;;;;;;2.33;1.80;;;;;;;;;;5031865;28;20310;-82
2023/08/09 07:42:29;;;;;;;3.45;1.55;;;;;;;;;;4994587;28;20699;-81
2023/08/09 07:44:57;;;;;;;3.67;1.67;;;;;;;;;;5043809;28;20230;-82
2023/08/09 07:47:22;;;;;;;4.55;1.63;;;;;;;;;;4999726;28;20227;-83
2023/08/09 07:49:48;;;;;;;3.05;1.23;;;;;;;;;;5027466;28;20222;-82
2023/08/09 07:52:15;;;;;;;4.43;1.90;;;;;;;;;;5038556;28;20712;-81
2023/08/09 07:54:43;;;;;;;2.38;1.30;;;;;;;;;;5027664;28;20222;-81
2023/08/09 07:57:09;;;;;;;5.63;1.67;;;;;;;;;;5015169;28;20219;-82
2023/08/09 07:59:37;;;;;;;6.05;1.48;;;;;;;;;;5001208;28;20666;-80
2023/08/09 08:02:02;;;;;;;2.55;1.50;;;;;;;;;;5043200;28;20269;-81
2023/08/09 08:04:29;;;;;;;2.47;1.13;;;;;;;;;;4990263;28;20222;-83
2023/08/09 08:06:57;;;;;;;4.07;1.67;;;;;;;;;;5019447;28;20292;-82
2023/08/09 08:09:28;;;;;;;2.65;1.30;;;;;;;;;;5000634;28;20215;-80
2023/08/09 08:11:53;;;;;;;7.47;1.83;;;;;;;;;;5024196;28;20285;-80
2023/08/09 08:14:22;;;;;;;3.08;1.30;;;;;;;;;;4986821;28;20287;-83
2023/08/09 08:16:52;;;;;;;1.80;1.05;;;;;;;;;;5025942;28;20375;-82
2023/08/09 08:19:18;;;;;;;3.90;1.40;;;;;;;;;;4998380;28;20756;-80
2023/08/09 08:21:43;;;;;;;4.63;1.30;;;;;;;;;;5009650;28;20275;-80
2023/08/09 08:24:09;;;;;;;3.65;1.45;;;;;;;;;;5035302;28;20278;-84
2023/08/09 08:26:35;;;;;;;5.38;1.67;;;;;;;;;;5002757;28;20216;-81
2023/08/09 08:29:01;;;;;;;2.75;1.30;;;;;;;;;;5027640;28;20208;-84
2023/08/09 08:31:27;;;;;;;3.13;1.10;;;;;;;;;;5015905;28;20223;-82
2023/08/09 08:33:55;;;;;;;2.17;1.10;;;;;;;;;;4995281;28;20219;-82
2023/08/09 08:36:22;;;;;;;7.88;1.20;;;;;;;;;;5011321;28;20263;-81
2023/08/09 08:38:48;;;;;;;7.82;1.48;;;;;;;;;;4996045;28;20236;-83
2023/08/09 08:41:14;;;;;;;3.70;1.10;;;;;;;;;;4994249;28;20312;-82
2023/08/09 08:43:39;;;;;;;3.80;1.33;;;;;;;;;;5004336;28;20231;-81
2023/08/09 08:46:08;;;;;;;5.03;1.40;;;;;;;;;;5027322;28;20889;-79
2023/08/09 08:48:33;;;;;;;3.15;1.10;;;;;;;;;;5020700;28;20215;-80
2023/08/09 08:51:02;;;;;;;2.58;1.20;;;;;;;;;;5015683;28;20729;-80
2023/08/09 08:53:27;;;;;;;4.68;1.50;;;;;;;;;;5018573;28;20224;-80
2023/08/09 08:55:55;;;;;;;4.88;1.20;;;;;;;;;;4994097;28;20238;-79
2023/08/09 08:58:21;;;;;;;2.30;0.98;;;;;;;;;;5002188;28;20239;-80
2023/08/09 09:00:46;;;;;;;4.78;1.42;;;;;;;;;;5036235;28;20220;-80
2023/08/09 09:03:13;;;;;;;4.75;1.23;;;;;;;;;;5037476;28;20273;-82
2023/08/09 09:05:40;;;;;;;3.13;1.05;;;;;;;;;;5036815;28;20276;-79
2023/08/09 09:08:06;;;;;;;2.90;1.23;;;;;;;;;;5024227;28;20318;-80
2023/08/09 09:10:34;;;;;;;4.70;1.00;;;;;;;;;;5036144;28;20285;-83
2023/08/09 09:12:59;;;;;;;2.03;1.13;;;;;;;;;;5010566;28;20216;-81
2023/08/09 09:15:26;;;;;;;2.28;1.08;;;;;;;;;;5003635;28;20221;-80
2023/08/09 09:17:54;;;;;;;2.35;1.02;;;;;;;;;;5027376;28;20700;-81
2023/08/09 09:20:27;;;;;;;1.95;1.33;;;;;;;;;;5038229;28;20220;-82
2023/08/09 09:22:55;;;;;;;3.95;1.25;;;;;;;;;;5044043;28;20239;-82
2023/08/09 09:25:22;;;;;;;2.88;1.00;;;;;;;;;;5057472;28;20208;-80
2023/08/09 09:27:51;;;;;;;3.42;1.27;;;;;;;;;;5021700;28;20244;-80
2023/08/09 09:30:19;;;;;;;1.60;0.90;;;;;;;;;;5029405;28;20219;-78
2023/08/09 09:32:51;;;;;;;5.15;1.10;;;;;;;;;;5030641;28;20697;-81
2023/08/09 09:35:21;;;;;;;2.28;0.98;;;;;;;;;;5013055;28;20223;-79
2023/08/09 09:37:51;;;;;;;1.73;0.93;;;;;;;;;;5018152;28;20219;-81
2023/08/09 09:40:28;;;;;;;2.85;1.10;;;;;;;;;;5010245;28;20629;-80
2023/08/09 09:42:55;;;;;;;2.85;1.05;;;;;;;;;;5012504;28;20211;-81
2023/08/09 09:45:28;;;;;;;5.07;1.25;;;;;;;;;;5003738;28;20216;-79
2023/08/09 09:47:54;;;;;;;3.33;1.00;;;;;;;;;;5041279;28;20224;-78
2023/08/09 09:50:21;;;;;;;3.13;1.10;;;;;;;;;;5033942;28;20224;-81
2023/08/09 09:52:49;;;;;;;2.85;1.13;;;;;;;;;;5036674;28;20316;-80
2023/08/09 09:55:16;;;;;;;2.05;1.05;;;;;;;;;;5039711;28;20606;-80
2023/08/09 09:57:47;;;;;;;4.72;1.40;;;;;;;;;;4986403;28;20235;-80
2023/08/09 10:00:20;;;;;;;1.80;1.00;;;;;;;;;;5022624;28;20227;-82
2023/08/09 10:02:49;;;;;;;2.55;1.10;;;;;;;;;;5040281;28;20266;-78
2023/08/09 10:05:26;;;;;;;2.92;1.20;;;;;;;;;;5060344;28;20226;-77
2023/08/09 10:07:52;;;;;;;4.55;1.00;;;;;;;;;;5029481;28;20215;-79
2023/08/09 10:10:20;;;;;;;3.10;1.00;;;;;;;;;;5012155;28;20221;-81
2023/08/09 10:12:55;;;;;;;3.38;1.15;;;;;;;;;;5013649;28;20226;-80
2023/08/09 10:15:23;;;;;;;3.67;1.10;;;;;;;;;;5045256;28;20427;-79
2023/08/09 10:17:51;;;;;;;2.03;1.20;;;;;;;;;;5023766;28;20231;-80
2023/08/09 10:20:23;;;;;;;3.13;1.20;;;;;;;;;;5027276;28;20339;-80
2023/08/09 10:22:49;;;;;;;2.45;1.02;;;;;;;;;;5014990;28;20252;-80
2023/08/09 10:25:14;;;;;;;2.38;1.10;;;;;;;;;;5006221;28;20223;-82
2023/08/09 10:27:46;;;;;;;2.35;1.15;;;;;;;;;;5037770;28;20694;-80
2023/08/09 10:30:14;;;;;;;2.45;0.82;;;;;;;;;;5009154;28;20248;-80
2023/08/09 10:32:55;;;;;;;3.45;0.90;;;;;;;;;;4990745;28;20239;-81
2023/08/09 10:35:39;;;;;;;3.95;1.08;;;;;;;;;;5024768;28;20228;-79
2023/08/09 10:38:09;;;;;;;2.88;1.00;;;;;;;;;;5026802;28;20243;-81
2023/08/09 10:40:42;;;;;;;2.30;0.90;;;;;;;;;;5033650;28;20227;-82
2023/08/09 10:43:18;;;;;;;3.20;1.00;;;;;;;;;;5008606;28;20601;-80
2023/08/09 10:45:48;;;;;;;2.50;0.90;;;;;;;;;;5027702;28;20222;-82
2023/08/09 10:48:24;;;;;;;3.20;1.10;;;;;;;;;;4995574;28;20216;-82
2023/08/09 10:51:04;;;;;;;2.22;0.90;;;;;;;;;;5046859;28;20230;-80
2023/08/09 10:53:30;;;;;;;2.28;1.10;;;;;;;;;;5040151;28;20242;-79
2023/08/09 10:55:57;;;;;;;1.08;0.70;;;;;;;;;;5040110;28;20220;-80
2023/08/09 10:58:28;;;;;;;0.88;0.75;;;;;;;;;;5036516;28;20706;-78
2023/08/09 11:00:55;;;;;;;3.03;0.93;;;;;;;;;;4991834;28;20220;-82
2023/08/09 11:03:23;;;;;;;3.40;1.00;;;;;;;;;;5009554;28;20231;-79
2023/08/09 11:05:49;;;;;;;4.57;0.98;;;;;;;;;;5009205;28;20211;-79
2023/08/09 11:08:17;;;;;;;1.90;0.80;;;;;;;;;;4988635;28;20224;-79
2023/08/09 11:10:46;;;;;;;3.85;1.20;;;;;;;;;;5021752;28;20220;-80
2023/08/09 11:13:13;;;;;;;1.90;0.90;;;;;;;;;;5011775;28;20256;-80
2023/08/09 11:15:45;;;;;;;3.13;1.02;;;;;;;;;;5007967;28;20216;-79
2023/08/09 11:18:10;;;;;;;1.48;0.77;;;;;;;;;;5005073;28;20639;-80
2023/08/09 11:20:38;;;;;;;2.63;0.93;;;;;;;;;;4992481;28;20208;-78
2023/08/09 11:23:06;;;;;;;2.38;1.10;;;;;;;;;;5004810;28;20763;-78
2023/08/09 11:25:33;;;;;;;3.35;0.90;;;;;;;;;;4992589;28;20314;-78
2023/08/09 11:28:06;;;;;;;3.05;0.80;;;;;;;;;;4988686;28;20240;-80
2023/08/09 11:30:33;;;;;;;1.55;0.90;;;;;;;;;;5004924;28;20215;-80
2023/08/09 11:33:04;;;;;;;1.77;1.00;;;;;;;;;;5060929;28;20226;-79
2023/08/09 11:35:30;;;;;;;2.58;0.98;;;;;;;;;;4993717;28;20218;-80
2023/08/09 11:38:00;;;;;;;1.00;0.70;;;;;;;;;;5011717;28;20212;-81
2023/08/09 11:40:26;;;;;;;1.00;0.90;;;;;;;;;;5010209;28;20223;-79
2023/08/09 11:43:11;;;;;;;1.55;0.80;;;;;;;;;;5056239;28;20273;-79
2023/08/09 11:45:52;;;;;;;1.70;1.00;;;;;;;;;;5018491;28;20227;-81
2023/08/09 11:48:31;;;;;;;2.05;0.95;;;;;;;;;;5046153;28;20268;-82
2023/08/09 11:51:06;;;;;;;3.33;0.90;;;;;;;;;;5038916;28;20212;-81
2023/08/09 11:53:33;;;;;;;3.10;0.85;;;;;;;;;;5006876;28;20245;-81
2023/08/09 11:56:06;;;;;;;2.53;1.20;;;;;;;;;;5039692;28;20212;-79
2023/08/09 11:58:34;;;;;;;1.60;1.00;;;;;;;;;;5019891;28;20227;-79
2023/08/09 12:00:59;;;;;;;2.00;1.00;;;;;;;;;;5002934;28;20850;-78
2023/08/09 12:03:27;;;;;;;2.63;1.05;;;;;;;;;;5022864;28;20681;-79
2023/08/09 12:05:53;;;;;;;3.58;1.02;;;;;;;;;;5020496;28;20227;-80
2023/08/09 12:08:35;;;;;;;1.27;1.00;;;;;;;;;;5037506;28;20206;-78
2023/08/09 12:11:00;;;;;;;2.08;1.10;;;;;;;;;;5011542;28;20272;-79
2023/08/09 12:13:26;;;;;;;6.22;1.05;;;;;;;;;;5009121;28;20222;-79
2023/08/09 12:15:53;;;;;;;2.67;1.00;;;;;;;;;;5017681;28;20320;-80
2023/08/09 12:18:19;;;;;;;1.42;0.82;;;;;;;;;;5032219;28;20780;-79
2023/08/09 12:20:46;;;;;;;1.85;1.10;;;;;;;;;;5040481;28;20224;-78
2023/08/09 12:23:16;;;;;;;3.00;0.98;;;;;;;;;;5032356;23;20228;-77
2023/08/09 12:25:43;;;;;;;1.88;1.17;;;;;;;;;;4996036;28;20225;-77
2023/08/09 12:28:11;;;;;;;2.05;1.15;;;;;;;;;;4978964;28;20279;-78
2023/08/09 12:30:39;;;;;;;2.13;1.20;;;;;;;;;;4994232;28;20225;-77
2023/08/09 12:33:09;;;;;;;4.28;1.00;;;;;;;;;;4995572;28;20242;-77
2023/08/09 12:35:35;;;;;;;1.73;1.00;;;;;;;;;;4978979;28;20240;-79
2023/08/09 12:38:05;;;;;;;2.30;1.00;;;;;;;;;;4979813;28;20266;-78
2023/08/09 12:40:31;;;;;;;3.50;1.08;;;;;;;;;;4985665;28;20227;-79
2023/08/09 12:42:59;;;;;;;2.90;1.17;;;;;;;;;;5007052;28;20208;-78
2023/08/09 12:45:24;;;;;;;2.05;0.95;;;;;;;;;;4990775;28;20232;-75
2023/08/09 12:47:50;;;;;;;2.05;0.80;;;;;;;;;;4995060;28;20212;-77
2023/08/09 12:50:15;;;;;;;4.05;1.05;;;;;;;;;;4999700;28;20278;-78
2023/08/09 12:52:43;;;;;;;1.80;0.90;;;;;;;;;;5000767;28;20258;-78
2023/08/09 12:55:11;;;;;;;2.28;1.00;;;;;;;;;;4992515;28;20217;-77
2023/08/09 12:57:38;;;;;;;2.78;1.13;;;;;;;;;;5000687;28;20291;-78
2023/08/09 13:00:04;;;;;;;5.13;1.60;;;;;;;;;;5022478;28;20231;-78
2023/08/09 13:02:32;;;;;;;4.00;1.20;;;;;;;;;;5002090;28;20221;-79
2023/08/09 13:05:03;;;;;;;2.72;0.93;;;;;;;;;;5013603;28;20590;-79
2023/08/09 13:07:29;;;;;;;4.63;1.13;;;;;;;;;;5025358;28;20229;-77
2023/08/09 13:09:55;;;;;;;0.90;0.90;;;;;;;;;;5011847;28;20277;-77
2023/08/09 13:12:25;;;;;;;1.30;0.80;;;;;;;;;;4997878;28;20315;-77
2023/08/09 13:14:53;;;;;;;2.30;0.80;;;;;;;;;;5018850;28;20236;-79
2023/08/09 13:17:18;;;;;;;1.00;0.60;;;;;;;;;;5016565;28;20217;-80
2023/08/09 13:19:44;;;;;;;2.47;0.93;;;;;;;;;;4994582;28;20247;-79
2023/08/09 13:22:15;;;;;;;0.70;0.60;;;;;;;;;;4999694;28;20227;-79
2023/08/09 13:24:40;;;;;;;1.52;0.80;;;;;;;;;;4980332;28;20263;-80
2023/08/09 13:27:06;;;;;;;1.02;0.70;;;;;;;;;;4988509;28;20220;-78
2023/08/09 13:29:34;;;;;;;2.33;0.85;;;;;;;;;;4995577;28;20218;-79
2023/08/09 13:32:04;;;;;;;4.10;1.00;;;;;;;;;;5015050;28;20252;-79
2023/08/09 13:34:34;;;;;;;1.85;0.75;;;;;;;;;;4992344;28;20221;-79
2023/08/09 13:37:00;;;;;;;1.25;0.80;;;;;;;;;;5014783;28;20222;-79
2023/08/09 13:39:30;;;;;;;0.90;0.75;;;;;;;;;;5020705;28;20260;-79
2023/08/09 13:41:56;;;;;;;1.45;0.85;;;;;;;;;;5014412;28;20217;-79
2023/08/09 13:44:23;;;;;;;1.95;0.80;;;;;;;;;;5008876;28;20229;-77
2023/08/09 13:46:48;;;;;;;2.15;0.82;;;;;;;;;;4999477;28;20238;-78
2023/08/09 13:49:16;;;;;;;0.95;0.80;;;;;;;;;;4999139;28;20205;-79
2023/08/09 13:51:42;;;;;;;1.30;0.82;;;;;;;;;;5002733;28;20272;-79
2023/08/09 13:54:08;;;;;;;2.22;0.90;;;;;;;;;;5004038;28;20228;-80
2023/08/09 13:56:36;;;;;;;1.25;0.80;;;;;;;;;;5000665;28;20227;-78
2023/08/09 13:59:04;;;;;;;0.90;0.73;;;;;;;;;;5002024;28;20652;-78
2023/08/09 14:01:29;;;;;;;0.82;0.73;;;;;;;;;;5006092;28;20232;-78
2023/08/09 14:03:57;;;;;;;1.40;0.80;;;;;;;;;;4976294;28;20274;-80
2023/08/09 14:06:26;;;;;;;2.53;0.80;;;;;;;;;;5011185;28;20232;-80
2023/08/09 14:08:54;;;;;;;4.78;1.00;;;;;;;;;;4991393;28;20303;-80
2023/08/09 14:11:19;;;;;;;1.08;0.75;;;;;;;;;;5000498;28;20221;-79
2023/08/09 14:13:45;;;;;;;1.75;0.90;;;;;;;;;;5017743;28;20230;-79
2023/08/09 14:16:12;;;;;;;2.08;1.00;;;;;;;;;;4995836;28;20221;-80
2023/08/09 14:18:40;;;;;;;0.65;0.65;;;;;;;;;;5007100;28;20233;-81
2023/08/09 14:21:06;;;;;;;3.33;1.00;;;;;;;;;;5023789;28;20220;-78
2023/08/09 14:23:34;;;;;;;2.30;1.00;;;;;;;;;;5021225;28;20220;-79
2023/08/09 14:26:01;;;;;;;1.20;0.95;;;;;;;;;;4976901;28;20236;-78
2023/08/09 14:28:32;;;;;;;0.95;0.80;;;;;;;;;;5011453;28;20227;-78
2023/08/09 14:31:00;;;;;;;1.98;0.73;;;;;;;;;;5000272;28;20299;-78
2023/08/09 14:33:28;;;;;;;1.50;0.70;;;;;;;;;;5026753;28;20307;-79
2023/08/09 14:35:56;;;;;;;1.88;0.80;;;;;;;;;;4977864;28;20221;-80
2023/08/09 14:38:22;;;;;;;2.10;0.80;;;;;;;;;;4992203;28;20243;-79
2023/08/09 14:40:54;;;;;;;2.05;0.80;;;;;;;;;;5004112;28;20236;-79
2023/08/09 14:43:19;;;;;;;1.23;0.80;;;;;;;;;;5000250;28;20223;-78
2023/08/09 14:45:50;;;;;;;1.70;0.70;;;;;;;;;;4984618;28;20280;-78
2023/08/09 14:48:17;;;;;;;1.95;0.80;;;;;;;;;;4994672;28;20718;-77
2023/08/09 14:50:43;;;;;;;0.88;0.73;;;;;;;;;;5012476;28;20227;-78
2023/08/09 14:53:08;;;;;;;3.20;0.75;;;;;;;;;;5020885;28;20227;-78